EWG37V EDDK-LPPT
Flight info
| Callsign | EWG37V |
|---|---|
| Flight time | 2h 45m |
| Altitude | 34000 |
| Route | NVO3B/31R NVO Y868 NAVAK Z283 LNO DCT RASCA DCT FAMEN/N0444F350 DCT ESTOC UT300 PON UN872 ERIGA DCT FUJTI DCT PEPET DCT BAKUP DCT BATAX DCT INBOM |
| Aircraft | B738/M-SDE2E3FGHIRWXY/LB1 |
Departure
| Time | 2026-04-26 14:46 |
|---|---|
| Airport | Cologne Bonn Airport (EDDK) |
Arrival
| Time | 2026-04-26 17:31 |
|---|---|
| Airport | Lisbon Humberto Delgado Airport (LPPT) |
| Time | Latitude | Longitude | Altitude | Speed | Heading |
|---|---|---|---|---|---|
| 2026-04-26 13:57 | 50.87964 | 7.12415 | 233 ft | 0 kts | 246° |
| 2026-04-26 14:24 | 50.87971 | 7.12440 | 231 ft | 4 kts | 246° |
| 2026-04-26 14:25 | 50.87980 | 7.12474 | 234 ft | 4 kts | 233° |
| 2026-04-26 14:25 | 50.87997 | 7.12493 | 231 ft | 4 kts | 163° |
| 2026-04-26 14:25 | 50.88011 | 7.12480 | 234 ft | 4 kts | 137° |
| 2026-04-26 14:25 | 50.88026 | 7.12458 | 231 ft | 1 kts | 138° |
| 2026-04-26 14:29 | 50.88021 | 7.12465 | 236 ft | 4 kts | 137° |
| 2026-04-26 14:29 | 50.87977 | 7.12530 | 215 ft | 12 kts | 137° |
| 2026-04-26 14:29 | 50.87905 | 7.12609 | 231 ft | 13 kts | 169° |
| 2026-04-26 14:30 | 50.87820 | 7.12633 | 231 ft | 13 kts | 150° |
| 2026-04-26 14:30 | 50.87754 | 7.12721 | 231 ft | 12 kts | 140° |
| 2026-04-26 14:30 | 50.87692 | 7.12810 | 231 ft | 12 kts | 137° |
| 2026-04-26 14:30 | 50.87631 | 7.12899 | 231 ft | 12 kts | 137° |
| 2026-04-26 14:31 | 50.87560 | 7.13002 | 231 ft | 15 kts | 137° |
| 2026-04-26 14:31 | 50.87473 | 7.13128 | 231 ft | 18 kts | 137° |
| 2026-04-26 14:31 | 50.87372 | 7.13273 | 231 ft | 21 kts | 138° |
| 2026-04-26 14:31 | 50.87265 | 7.13428 | 233 ft | 21 kts | 137° |
| 2026-04-26 14:32 | 50.87161 | 7.13578 | 236 ft | 20 kts | 137° |
| 2026-04-26 14:32 | 50.87061 | 7.13724 | 240 ft | 19 kts | 137° |
| 2026-04-26 14:32 | 50.86963 | 7.13865 | 245 ft | 19 kts | 137° |
| 2026-04-26 14:32 | 50.86888 | 7.13974 | 252 ft | 13 kts | 137° |
| 2026-04-26 14:33 | 50.86823 | 7.14068 | 254 ft | 12 kts | 137° |
| 2026-04-26 14:33 | 50.86752 | 7.14136 | 254 ft | 12 kts | 161° |
| 2026-04-26 14:33 | 50.86683 | 7.14209 | 258 ft | 12 kts | 138° |
| 2026-04-26 14:33 | 50.86623 | 7.14297 | 260 ft | 12 kts | 137° |
| 2026-04-26 14:34 | 50.86540 | 7.14418 | 262 ft | 18 kts | 137° |
| 2026-04-26 14:34 | 50.86449 | 7.14549 | 268 ft | 17 kts | 137° |
| 2026-04-26 14:34 | 50.86363 | 7.14676 | 273 ft | 17 kts | 136° |
| 2026-04-26 14:34 | 50.86279 | 7.14799 | 278 ft | 16 kts | 138° |
| 2026-04-26 14:35 | 50.86197 | 7.14915 | 283 ft | 15 kts | 138° |
| 2026-04-26 14:35 | 50.86112 | 7.15037 | 286 ft | 18 kts | 137° |
| 2026-04-26 14:35 | 50.86010 | 7.15185 | 294 ft | 21 kts | 137° |
| 2026-04-26 14:35 | 50.85901 | 7.15343 | 295 ft | 21 kts | 137° |
| 2026-04-26 14:36 | 50.85795 | 7.15496 | 299 ft | 20 kts | 137° |
| 2026-04-26 14:36 | 50.85693 | 7.15646 | 300 ft | 20 kts | 137° |
| 2026-04-26 14:36 | 50.85593 | 7.15790 | 304 ft | 19 kts | 137° |
| 2026-04-26 14:36 | 50.85497 | 7.15929 | 307 ft | 18 kts | 137° |
| 2026-04-26 14:37 | 50.85405 | 7.16061 | 307 ft | 16 kts | 137° |
| 2026-04-26 14:37 | 50.85343 | 7.16201 | 308 ft | 15 kts | 107° |
| 2026-04-26 14:37 | 50.85346 | 7.16360 | 307 ft | 14 kts | 69° |
| 2026-04-26 14:37 | 50.85400 | 7.16470 | 307 ft | 12 kts | 37° |
| 2026-04-26 14:38 | 50.85414 | 7.16484 | 307 ft | 0 kts | 30° |
| 2026-04-26 14:43 | 50.85436 | 7.16502 | 306 ft | 9 kts | 24° |
| 2026-04-26 14:43 | 50.85508 | 7.16522 | 306 ft | 11 kts | 9° |
| 2026-04-26 14:43 | 50.85571 | 7.16495 | 307 ft | 4 kts | 318° |
| 2026-04-26 14:43 | 50.85572 | 7.16494 | 310 ft | 0 kts | 318° |
| 2026-04-26 14:45 | 50.85579 | 7.16484 | 307 ft | 11 kts | 318° |
| 2026-04-26 14:45 | 50.85714 | 7.16289 | 307 ft | 67 kts | 317° |
| 2026-04-26 14:45 | 50.86457 | 7.15211 | 281 ft | 145 kts | 317° |
| 2026-04-26 14:45 | 50.87288 | 7.14007 | 544 ft | 169 kts | 318° |
| 2026-04-26 14:46 | 50.88183 | 7.12748 | 1186 ft | 176 kts | 319° |
| 2026-04-26 14:46 | 50.89092 | 7.11422 | 1850 ft | 184 kts | 317° |
| 2026-04-26 14:46 | 50.90052 | 7.10031 | 2417 ft | 188 kts | 319° |
| 2026-04-26 14:46 | 50.91022 | 7.08558 | 2936 ft | 198 kts | 308° |
| 2026-04-26 14:47 | 50.91568 | 7.06579 | 3472 ft | 206 kts | 279° |
| 2026-04-26 14:47 | 50.91378 | 7.04251 | 3731 ft | 225 kts | 249° |
| 2026-04-26 14:47 | 50.90721 | 7.01942 | 4044 ft | 238 kts | 248° |
| 2026-04-26 14:47 | 50.90088 | 6.99452 | 4433 ft | 247 kts | 250° |
| 2026-04-26 14:48 | 50.89460 | 6.96799 | 4666 ft | 269 kts | 252° |
| 2026-04-26 14:48 | 50.88809 | 6.93911 | 5047 ft | 284 kts | 252° |
| 2026-04-26 14:48 | 50.88163 | 6.90944 | 5831 ft | 284 kts | 253° |
| 2026-04-26 14:48 | 50.87530 | 6.88022 | 6833 ft | 276 kts | 253° |
| 2026-04-26 14:49 | 50.86930 | 6.85153 | 7662 ft | 274 kts | 254° |
| 2026-04-26 14:49 | 50.86320 | 6.82270 | 8286 ft | 279 kts | 253° |
| 2026-04-26 14:49 | 50.85691 | 6.79401 | 9019 ft | 280 kts | 253° |
| 2026-04-26 14:49 | 50.85052 | 6.76480 | 9729 ft | 282 kts | 254° |
| 2026-04-26 14:50 | 50.84416 | 6.73525 | 10388 ft | 285 kts | 254° |
| 2026-04-26 14:50 | 50.83765 | 6.70517 | 10818 ft | 296 kts | 254° |
| 2026-04-26 14:50 | 50.83097 | 6.67341 | 11135 ft | 310 kts | 254° |
| 2026-04-26 14:50 | 50.82422 | 6.64048 | 11510 ft | 322 kts | 258° |
| 2026-04-26 14:51 | 50.82197 | 6.60436 | 11565 ft | 340 kts | 273° |
| 2026-04-26 14:51 | 50.82286 | 6.56669 | 12093 ft | 344 kts | 274° |
| 2026-04-26 14:51 | 50.82373 | 6.52891 | 12780 ft | 345 kts | 273° |
| 2026-04-26 14:51 | 50.82450 | 6.49064 | 13302 ft | 352 kts | 273° |
| 2026-04-26 14:52 | 50.82520 | 6.45163 | 13908 ft | 356 kts | 272° |
| 2026-04-26 14:52 | 50.82567 | 6.41246 | 14631 ft | 355 kts | 272° |
| 2026-04-26 14:52 | 50.82607 | 6.37380 | 15232 ft | 359 kts | 272° |
| 2026-04-26 14:52 | 50.82645 | 6.33403 | 15764 ft | 364 kts | 272° |
| 2026-04-26 14:53 | 50.82679 | 6.29387 | 16449 ft | 365 kts | 271° |
| 2026-04-26 14:53 | 50.82711 | 6.25371 | 17122 ft | 366 kts | 272° |
| 2026-04-26 14:53 | 50.82749 | 6.21319 | 17621 ft | 372 kts | 271° |
| 2026-04-26 14:53 | 50.82781 | 6.17193 | 18179 ft | 376 kts | 271° |
| 2026-04-26 14:54 | 50.82816 | 6.13071 | 18854 ft | 375 kts | 271° |
| 2026-04-26 14:54 | 50.82846 | 6.08930 | 19400 ft | 377 kts | 272° |
| 2026-04-26 14:54 | 50.82875 | 6.04747 | 19842 ft | 382 kts | 272° |
| 2026-04-26 14:54 | 50.82905 | 6.00501 | 20306 ft | 386 kts | 271° |
| 2026-04-26 14:55 | 50.82642 | 5.96271 | 20789 ft | 392 kts | 256° |
| 2026-04-26 14:55 | 50.81463 | 5.92335 | 21192 ft | 402 kts | 236° |
| 2026-04-26 14:55 | 50.79551 | 5.89094 | 21777 ft | 407 kts | 220° |
| 2026-04-26 14:55 | 50.77118 | 5.86731 | 22205 ft | 415 kts | 211° |
| 2026-04-26 14:56 | 50.74537 | 5.84619 | 22581 ft | 420 kts | 210° |
| 2026-04-26 14:56 | 50.71984 | 5.82507 | 23127 ft | 419 kts | 211° |
| 2026-04-26 14:56 | 50.69408 | 5.80354 | 23673 ft | 420 kts | 212° |
| 2026-04-26 14:56 | 50.66827 | 5.78109 | 23951 ft | 426 kts | 212° |
| 2026-04-26 14:57 | 50.64226 | 5.75790 | 24204 ft | 431 kts | 212° |
| 2026-04-26 14:57 | 50.61610 | 5.73512 | 24750 ft | 428 kts | 212° |
| 2026-04-26 14:57 | 50.59106 | 5.71015 | 25171 ft | 426 kts | 220° |
| 2026-04-26 14:57 | 50.56873 | 5.67914 | 25360 ft | 428 kts | 231° |
| 2026-04-26 14:58 | 50.54956 | 5.64317 | 25630 ft | 430 kts | 234° |
| 2026-04-26 14:58 | 50.53146 | 5.60653 | 26022 ft | 430 kts | 238° |
| 2026-04-26 14:58 | 50.51409 | 5.56831 | 26414 ft | 430 kts | 237° |
| 2026-04-26 14:58 | 50.49567 | 5.53089 | 26780 ft | 433 kts | 234° |
| 2026-04-26 14:59 | 50.47602 | 5.49463 | 27085 ft | 437 kts | 232° |
| 2026-04-26 14:59 | 50.45596 | 5.45864 | 27362 ft | 440 kts | 232° |
| 2026-04-26 14:59 | 50.43585 | 5.42234 | 27666 ft | 442 kts | 233° |
| 2026-04-26 14:59 | 50.42258 | 5.39811 | 27873 ft | 443 kts | 233° |
| 2026-04-26 15:00 | 50.40258 | 5.36111 | 28191 ft | 444 kts | 233° |
| 2026-04-26 15:00 | 50.37594 | 5.31121 | 28581 ft | 447 kts | 234° |
| 2026-04-26 15:00 | 50.35600 | 5.27367 | 28861 ft | 449 kts | 234° |
| 2026-04-26 15:00 | 50.33597 | 5.23593 | 29148 ft | 451 kts | 234° |
| 2026-04-26 15:01 | 50.31612 | 5.19858 | 29535 ft | 451 kts | 234° |
| 2026-04-26 15:01 | 50.29612 | 5.16104 | 29975 ft | 449 kts | 234° |
| 2026-04-26 15:01 | 50.27612 | 5.12356 | 30337 ft | 449 kts | 234° |
| 2026-04-26 15:01 | 50.25606 | 5.08603 | 30628 ft | 449 kts | 234° |
| 2026-04-26 15:02 | 50.23604 | 5.04862 | 30973 ft | 447 kts | 234° |
| 2026-04-26 15:02 | 50.21621 | 5.01167 | 31581 ft | 439 kts | 234° |
| 2026-04-26 15:02 | 50.19667 | 4.97528 | 32013 ft | 436 kts | 234° |
| 2026-04-26 15:02 | 50.17717 | 4.93893 | 32253 ft | 437 kts | 234° |
| 2026-04-26 15:03 | 50.15777 | 4.90285 | 32422 ft | 440 kts | 234° |
| 2026-04-26 15:03 | 50.13806 | 4.86632 | 32710 ft | 439 kts | 234° |
| 2026-04-26 15:03 | 50.11836 | 4.82998 | 33069 ft | 437 kts | 234° |
| 2026-04-26 15:03 | 50.09872 | 4.79385 | 33410 ft | 435 kts | 234° |
| 2026-04-26 15:04 | 50.07911 | 4.75781 | 33658 ft | 436 kts | 234° |
| 2026-04-26 15:04 | 50.05949 | 4.72177 | 33884 ft | 437 kts | 234° |
| 2026-04-26 15:04 | 50.03987 | 4.68575 | 34185 ft | 436 kts | 234° |
| 2026-04-26 15:05 | 50.00040 | 4.61342 | 34297 ft | 441 kts | 234° |
| 2026-04-26 15:05 | 49.96300 | 4.53870 | 34765 ft | 432 kts | 244° |
| 2026-04-26 15:05 | 49.94796 | 4.49868 | 35164 ft | 426 kts | 244° |
| 2026-04-26 15:06 | 49.93330 | 4.45864 | 35220 ft | 428 kts | 245° |
| 2026-04-26 15:06 | 49.90379 | 4.37802 | 35234 ft | 429 kts | 244° |
| 2026-04-26 15:07 | 49.85933 | 4.25895 | 35244 ft | 424 kts | 244° |
| 2026-04-26 15:07 | 49.82956 | 4.18015 | 35244 ft | 422 kts | 244° |
| 2026-04-26 15:08 | 49.79983 | 4.10172 | 35242 ft | 421 kts | 244° |
| 2026-04-26 15:08 | 49.77007 | 4.02345 | 35242 ft | 422 kts | 244° |
| 2026-04-26 15:09 | 49.74022 | 3.94518 | 35246 ft | 423 kts | 244° |
| 2026-04-26 15:09 | 49.71018 | 3.86662 | 35242 ft | 425 kts | 244° |
| 2026-04-26 15:10 | 49.69020 | 3.81452 | 35242 ft | 427 kts | 244° |
| 2026-04-26 15:10 | 49.65469 | 3.72218 | 35240 ft | 429 kts | 244° |
| 2026-04-26 15:11 | 49.62408 | 3.64281 | 35238 ft | 431 kts | 244° |
| 2026-04-26 15:11 | 49.59327 | 3.56321 | 35235 ft | 432 kts | 243° |
| 2026-04-26 15:12 | 49.56239 | 3.48366 | 35235 ft | 432 kts | 243° |
| 2026-04-26 15:12 | 49.53163 | 3.40466 | 35231 ft | 432 kts | 243° |
| 2026-04-26 15:13 | 49.50071 | 3.32550 | 35232 ft | 430 kts | 243° |
| 2026-04-26 15:13 | 49.46982 | 3.24662 | 35218 ft | 429 kts | 243° |
| 2026-04-26 15:14 | 49.43903 | 3.16826 | 35229 ft | 427 kts | 243° |
| 2026-04-26 15:14 | 49.40830 | 3.09024 | 35234 ft | 426 kts | 243° |
| 2026-04-26 15:15 | 49.37779 | 3.01303 | 35233 ft | 425 kts | 243° |
| 2026-04-26 15:15 | 49.34716 | 2.93573 | 35238 ft | 424 kts | 243° |
| 2026-04-26 15:16 | 49.31650 | 2.85860 | 35219 ft | 423 kts | 243° |
| 2026-04-26 15:16 | 49.28581 | 2.78159 | 35219 ft | 423 kts | 243° |
| 2026-04-26 15:17 | 49.26028 | 2.71770 | 35218 ft | 423 kts | 243° |
| 2026-04-26 15:17 | 49.22429 | 2.62790 | 35228 ft | 423 kts | 242° |
| 2026-04-26 15:18 | 49.19344 | 2.55115 | 35235 ft | 424 kts | 242° |
| 2026-04-26 15:18 | 49.16247 | 2.47430 | 35236 ft | 425 kts | 242° |
| 2026-04-26 15:19 | 49.13448 | 2.39585 | 35233 ft | 420 kts | 253° |
| 2026-04-26 15:19 | 49.12127 | 2.30989 | 35230 ft | 415 kts | 265° |
| 2026-04-26 15:20 | 49.11362 | 2.22232 | 35213 ft | 416 kts | 265° |
| 2026-04-26 15:20 | 49.10552 | 2.13481 | 35211 ft | 417 kts | 264° |
| 2026-04-26 15:21 | 49.09639 | 2.04726 | 35205 ft | 418 kts | 258° |
| 2026-04-26 15:21 | 49.07538 | 1.96410 | 35220 ft | 422 kts | 248° |
| 2026-04-26 15:22 | 49.05041 | 1.88286 | 35205 ft | 423 kts | 248° |
| 2026-04-26 15:22 | 49.02573 | 1.80208 | 35227 ft | 423 kts | 249° |
| 2026-04-26 15:23 | 49.00105 | 1.72073 | 35231 ft | 423 kts | 248° |
| 2026-04-26 15:23 | 48.97636 | 1.63935 | 35234 ft | 423 kts | 248° |
| 2026-04-26 15:24 | 48.95160 | 1.55794 | 35227 ft | 423 kts | 248° |
| 2026-04-26 15:24 | 48.92683 | 1.47678 | 35233 ft | 423 kts | 248° |
| 2026-04-26 15:25 | 48.90624 | 1.40952 | 35231 ft | 422 kts | 248° |
| 2026-04-26 15:25 | 48.87717 | 1.31491 | 35235 ft | 422 kts | 248° |
| 2026-04-26 15:26 | 48.85248 | 1.23481 | 35228 ft | 421 kts | 247° |
| 2026-04-26 15:26 | 48.82749 | 1.15401 | 35228 ft | 419 kts | 247° |
| 2026-04-26 15:27 | 48.80286 | 1.07461 | 35227 ft | 418 kts | 247° |
| 2026-04-26 15:27 | 48.77806 | 0.99490 | 35218 ft | 417 kts | 247° |
| 2026-04-26 15:28 | 48.75326 | 0.91544 | 35216 ft | 416 kts | 247° |
| 2026-04-26 15:28 | 48.72588 | 0.83825 | 35217 ft | 416 kts | 240° |
| 2026-04-26 15:29 | 48.69543 | 0.76432 | 35206 ft | 416 kts | 240° |
| 2026-04-26 15:30 | 48.63433 | 0.61582 | 35196 ft | 414 kts | 240° |
| 2026-04-26 15:30 | 48.60406 | 0.54157 | 35211 ft | 415 kts | 240° |
| 2026-04-26 15:31 | 48.55847 | 0.43002 | 35203 ft | 417 kts | 240° |
| 2026-04-26 15:32 | 48.51764 | 0.33053 | 35207 ft | 420 kts | 240° |
| 2026-04-26 15:32 | 48.48161 | 0.24307 | 35205 ft | 422 kts | 240° |
| 2026-04-26 15:33 | 48.45049 | 0.16774 | 35203 ft | 424 kts | 240° |
| 2026-04-26 15:33 | 48.41937 | 0.09260 | 35194 ft | 426 kts | 240° |
| 2026-04-26 15:34 | 48.38797 | 0.01697 | 35195 ft | 426 kts | 240° |
| 2026-04-26 15:34 | 48.35600 | -0.05837 | 35190 ft | 427 kts | 237° |
| 2026-04-26 15:35 | 48.32044 | -0.12994 | 35193 ft | 426 kts | 234° |
| 2026-04-26 15:35 | 48.28462 | -0.20057 | 35189 ft | 424 kts | 235° |
| 2026-04-26 15:36 | 48.24940 | -0.27100 | 35188 ft | 423 kts | 234° |
| 2026-04-26 15:36 | 48.21373 | -0.34107 | 35177 ft | 422 kts | 234° |
| 2026-04-26 15:37 | 48.17807 | -0.41063 | 35183 ft | 420 kts | 234° |
| 2026-04-26 15:37 | 48.14249 | -0.47998 | 35187 ft | 419 kts | 234° |
| 2026-04-26 15:38 | 48.10695 | -0.54918 | 35187 ft | 418 kts | 234° |
| 2026-04-26 15:38 | 48.07144 | -0.61817 | 35185 ft | 419 kts | 234° |
| 2026-04-26 15:39 | 48.03585 | -0.68715 | 35186 ft | 419 kts | 234° |
| 2026-04-26 15:39 | 48.00618 | -0.74452 | 35176 ft | 420 kts | 234° |
| 2026-04-26 15:40 | 47.96433 | -0.82522 | 35186 ft | 421 kts | 234° |
| 2026-04-26 15:40 | 47.92838 | -0.89436 | 35186 ft | 422 kts | 234° |
| 2026-04-26 15:41 | 47.89257 | -0.96305 | 35179 ft | 422 kts | 234° |
| 2026-04-26 15:41 | 47.85636 | -1.03234 | 35181 ft | 423 kts | 233° |
| 2026-04-26 15:42 | 47.82008 | -1.10158 | 35176 ft | 423 kts | 233° |
| 2026-04-26 15:42 | 47.78402 | -1.17023 | 35171 ft | 423 kts | 233° |
| 2026-04-26 15:43 | 47.74770 | -1.23921 | 35173 ft | 423 kts | 233° |
| 2026-04-26 15:44 | 47.69324 | -1.34231 | 35173 ft | 422 kts | 233° |
| 2026-04-26 15:44 | 47.63884 | -1.44494 | 35171 ft | 421 kts | 233° |
| 2026-04-26 15:45 | 47.58382 | -1.54620 | 35176 ft | 420 kts | 230° |
| 2026-04-26 15:46 | 47.52516 | -1.64173 | 35172 ft | 419 kts | 229° |
| 2026-04-26 15:46 | 47.49891 | -1.68434 | 35174 ft | 418 kts | 229° |
| 2026-04-26 15:47 | 47.42754 | -1.80098 | 35169 ft | 417 kts | 229° |
| 2026-04-26 15:48 | 47.38854 | -1.86464 | 35166 ft | 417 kts | 229° |
| 2026-04-26 15:48 | 47.34847 | -1.92673 | 35175 ft | 418 kts | 222° |
| 2026-04-26 15:49 | 47.30019 | -1.97402 | 35188 ft | 420 kts | 213° |
| 2026-04-26 15:49 | 47.24986 | -2.01813 | 35192 ft | 421 kts | 213° |
| 2026-04-26 15:50 | 47.19964 | -2.06250 | 35181 ft | 421 kts | 213° |
| 2026-04-26 15:50 | 47.14944 | -2.10713 | 35175 ft | 421 kts | 213° |
| 2026-04-26 15:51 | 47.09932 | -2.15166 | 35182 ft | 421 kts | 213° |
| 2026-04-26 15:51 | 47.05754 | -2.18871 | 35177 ft | 421 kts | 213° |
| 2026-04-26 15:52 | 47.00738 | -2.23311 | 35174 ft | 421 kts | 213° |
| 2026-04-26 15:52 | 46.94898 | -2.28467 | 35179 ft | 421 kts | 213° |
| 2026-04-26 15:53 | 46.90688 | -2.32177 | 35182 ft | 421 kts | 213° |
| 2026-04-26 15:53 | 46.85692 | -2.36568 | 35185 ft | 421 kts | 213° |
| 2026-04-26 15:54 | 46.80667 | -2.40979 | 35183 ft | 420 kts | 213° |
| 2026-04-26 15:54 | 46.75653 | -2.45375 | 35196 ft | 420 kts | 213° |
| 2026-04-26 15:55 | 46.70641 | -2.49761 | 35186 ft | 420 kts | 213° |
| 2026-04-26 15:55 | 46.65663 | -2.54108 | 35181 ft | 420 kts | 213° |
| 2026-04-26 15:56 | 46.60654 | -2.58472 | 35179 ft | 419 kts | 213° |
| 2026-04-26 15:56 | 46.55640 | -2.62832 | 35191 ft | 419 kts | 213° |
| 2026-04-26 15:57 | 46.50627 | -2.67180 | 35188 ft | 419 kts | 212° |
| 2026-04-26 15:57 | 46.45621 | -2.71514 | 35189 ft | 419 kts | 212° |
| 2026-04-26 15:58 | 46.40618 | -2.75836 | 35190 ft | 419 kts | 212° |
| 2026-04-26 15:58 | 46.35637 | -2.80130 | 35189 ft | 419 kts | 212° |
| 2026-04-26 15:59 | 46.30630 | -2.84438 | 35189 ft | 419 kts | 212° |
| 2026-04-26 15:59 | 46.25617 | -2.88740 | 35189 ft | 419 kts | 212° |
| 2026-04-26 16:00 | 46.20605 | -2.93025 | 35191 ft | 419 kts | 212° |
| 2026-04-26 16:00 | 46.15579 | -2.97313 | 35195 ft | 418 kts | 212° |
| 2026-04-26 16:01 | 46.10562 | -3.01586 | 35179 ft | 418 kts | 212° |
| 2026-04-26 16:01 | 46.05578 | -3.05823 | 35192 ft | 418 kts | 212° |
| 2026-04-26 16:02 | 46.00555 | -3.10084 | 35191 ft | 419 kts | 212° |
| 2026-04-26 16:02 | 45.95528 | -3.14339 | 35183 ft | 419 kts | 212° |
| 2026-04-26 16:03 | 45.90500 | -3.18587 | 35183 ft | 419 kts | 212° |
| 2026-04-26 16:03 | 45.85472 | -3.22825 | 35183 ft | 419 kts | 212° |
| 2026-04-26 16:04 | 45.80441 | -3.27057 | 35182 ft | 419 kts | 212° |
| 2026-04-26 16:04 | 45.75430 | -3.31263 | 35182 ft | 419 kts | 212° |
| 2026-04-26 16:05 | 45.70394 | -3.35481 | 35171 ft | 419 kts | 212° |
| 2026-04-26 16:05 | 45.65352 | -3.39696 | 35183 ft | 419 kts | 212° |
| 2026-04-26 16:06 | 45.60306 | -3.43905 | 35182 ft | 419 kts | 212° |
| 2026-04-26 16:06 | 45.55293 | -3.48078 | 35183 ft | 420 kts | 212° |
| 2026-04-26 16:07 | 45.50241 | -3.52274 | 35187 ft | 420 kts | 212° |
| 2026-04-26 16:07 | 45.45186 | -3.56464 | 35180 ft | 420 kts | 212° |
| 2026-04-26 16:08 | 45.40129 | -3.60647 | 35179 ft | 420 kts | 212° |
| 2026-04-26 16:08 | 45.35068 | -3.64824 | 35179 ft | 420 kts | 211° |
| 2026-04-26 16:09 | 45.30043 | -3.68964 | 35171 ft | 420 kts | 211° |
| 2026-04-26 16:09 | 45.24985 | -3.73122 | 35186 ft | 420 kts | 211° |
| 2026-04-26 16:10 | 45.19922 | -3.77276 | 35190 ft | 420 kts | 211° |
| 2026-04-26 16:10 | 45.14860 | -3.81421 | 35179 ft | 420 kts | 211° |
| 2026-04-26 16:11 | 45.09791 | -3.85563 | 35178 ft | 420 kts | 211° |
| 2026-04-26 16:11 | 45.04746 | -3.89769 | 35169 ft | 420 kts | 212° |
| 2026-04-26 16:12 | 44.99752 | -3.94075 | 35184 ft | 420 kts | 213° |
| 2026-04-26 16:12 | 44.92287 | -4.00494 | 35162 ft | 421 kts | 212° |
| 2026-04-26 16:13 | 44.87279 | -4.04771 | 35175 ft | 421 kts | 212° |
| 2026-04-26 16:13 | 44.82262 | -4.09043 | 35170 ft | 421 kts | 212° |
| 2026-04-26 16:14 | 44.77246 | -4.13304 | 35173 ft | 421 kts | 212° |
| 2026-04-26 16:15 | 44.69703 | -4.19697 | 35170 ft | 422 kts | 212° |
| 2026-04-26 16:15 | 44.64701 | -4.23926 | 35173 ft | 422 kts | 212° |
| 2026-04-26 16:16 | 44.57154 | -4.30290 | 35181 ft | 422 kts | 212° |
| 2026-04-26 16:16 | 44.52115 | -4.34529 | 35162 ft | 422 kts | 212° |
| 2026-04-26 16:17 | 44.47077 | -4.38759 | 35175 ft | 422 kts | 212° |
| 2026-04-26 16:17 | 44.42029 | -4.42988 | 35181 ft | 423 kts | 212° |
| 2026-04-26 16:18 | 44.34470 | -4.49370 | 35178 ft | 423 kts | 212° |
| 2026-04-26 16:19 | 44.26934 | -4.55755 | 35179 ft | 425 kts | 213° |
| 2026-04-26 16:20 | 44.19342 | -4.62160 | 35178 ft | 425 kts | 212° |
| 2026-04-26 16:20 | 44.11746 | -4.68545 | 35174 ft | 425 kts | 212° |
| 2026-04-26 16:21 | 44.06688 | -4.72786 | 35180 ft | 424 kts | 212° |
| 2026-04-26 16:21 | 44.01630 | -4.77019 | 35187 ft | 424 kts | 212° |
| 2026-04-26 16:22 | 43.96572 | -4.81244 | 35184 ft | 423 kts | 212° |
| 2026-04-26 16:22 | 43.91552 | -4.85428 | 35180 ft | 423 kts | 212° |
| 2026-04-26 16:23 | 43.86496 | -4.89634 | 35184 ft | 423 kts | 212° |
| 2026-04-26 16:23 | 43.81449 | -4.93824 | 35185 ft | 423 kts | 212° |
| 2026-04-26 16:24 | 43.76389 | -4.98017 | 35192 ft | 423 kts | 212° |
| 2026-04-26 16:24 | 43.71336 | -5.02195 | 35170 ft | 423 kts | 212° |
| 2026-04-26 16:25 | 43.66301 | -5.06350 | 35183 ft | 423 kts | 212° |
| 2026-04-26 16:25 | 43.61231 | -5.10526 | 35193 ft | 425 kts | 212° |
| 2026-04-26 16:26 | 43.57009 | -5.13997 | 35191 ft | 426 kts | 212° |
| 2026-04-26 16:26 | 43.51041 | -5.18893 | 35178 ft | 427 kts | 212° |
| 2026-04-26 16:27 | 43.45914 | -5.23091 | 35187 ft | 429 kts | 212° |
| 2026-04-26 16:27 | 43.40774 | -5.27291 | 35189 ft | 431 kts | 212° |
| 2026-04-26 16:28 | 43.35640 | -5.31477 | 35185 ft | 432 kts | 212° |
| 2026-04-26 16:28 | 43.30457 | -5.35695 | 35185 ft | 433 kts | 212° |
| 2026-04-26 16:29 | 43.25260 | -5.39916 | 35188 ft | 434 kts | 211° |
| 2026-04-26 16:29 | 43.20054 | -5.44136 | 35182 ft | 434 kts | 211° |
| 2026-04-26 16:30 | 43.14846 | -5.48348 | 35183 ft | 434 kts | 211° |
| 2026-04-26 16:30 | 43.09640 | -5.52551 | 35178 ft | 434 kts | 211° |
| 2026-04-26 16:31 | 43.04443 | -5.56739 | 35166 ft | 433 kts | 212° |
| 2026-04-26 16:31 | 42.99270 | -5.60898 | 35164 ft | 433 kts | 211° |
| 2026-04-26 16:32 | 42.94951 | -5.64365 | 35159 ft | 433 kts | 211° |
| 2026-04-26 16:32 | 42.88879 | -5.69229 | 35152 ft | 432 kts | 211° |
| 2026-04-26 16:33 | 42.83694 | -5.73374 | 35140 ft | 431 kts | 212° |
| 2026-04-26 16:33 | 42.78513 | -5.77507 | 35140 ft | 431 kts | 212° |
| 2026-04-26 16:34 | 42.73362 | -5.81609 | 35133 ft | 431 kts | 212° |
| 2026-04-26 16:34 | 42.68184 | -5.85724 | 35134 ft | 431 kts | 212° |
| 2026-04-26 16:35 | 42.62996 | -5.89839 | 35131 ft | 431 kts | 212° |
| 2026-04-26 16:35 | 42.57811 | -5.93943 | 35130 ft | 431 kts | 212° |
| 2026-04-26 16:36 | 42.53501 | -5.97349 | 35124 ft | 431 kts | 212° |
| 2026-04-26 16:36 | 42.48312 | -6.01442 | 35129 ft | 431 kts | 211° |
| 2026-04-26 16:37 | 42.43114 | -6.05535 | 35105 ft | 432 kts | 211° |
| 2026-04-26 16:37 | 42.37909 | -6.09624 | 35117 ft | 432 kts | 211° |
| 2026-04-26 16:38 | 42.32736 | -6.13681 | 35112 ft | 432 kts | 211° |
| 2026-04-26 16:38 | 42.27523 | -6.17761 | 35106 ft | 433 kts | 211° |
| 2026-04-26 16:39 | 42.22307 | -6.21837 | 35099 ft | 433 kts | 211° |
| 2026-04-26 16:39 | 42.17082 | -6.25910 | 35106 ft | 434 kts | 211° |
| 2026-04-26 16:40 | 42.11850 | -6.29982 | 35112 ft | 434 kts | 211° |
| 2026-04-26 16:40 | 42.06611 | -6.34051 | 35102 ft | 435 kts | 211° |
| 2026-04-26 16:41 | 42.01354 | -6.38127 | 35091 ft | 435 kts | 211° |
| 2026-04-26 16:41 | 41.96099 | -6.42192 | 35094 ft | 436 kts | 211° |
| 2026-04-26 16:42 | 41.90838 | -6.46255 | 35087 ft | 436 kts | 211° |
| 2026-04-26 16:42 | 41.85606 | -6.50289 | 35094 ft | 436 kts | 211° |
| 2026-04-26 16:43 | 41.80335 | -6.54344 | 35082 ft | 436 kts | 211° |
| 2026-04-26 16:43 | 41.75065 | -6.58392 | 35078 ft | 436 kts | 211° |
| 2026-04-26 16:44 | 41.69844 | -6.62429 | 35068 ft | 435 kts | 214° |
| 2026-04-26 16:44 | 41.64940 | -6.67233 | 35065 ft | 434 kts | 219° |
| 2026-04-26 16:45 | 41.60212 | -6.72168 | 35068 ft | 433 kts | 219° |
| 2026-04-26 16:45 | 41.55441 | -6.77102 | 35066 ft | 433 kts | 219° |
| 2026-04-26 16:46 | 41.50658 | -6.81983 | 35064 ft | 433 kts | 219° |
| 2026-04-26 16:46 | 41.45854 | -6.86854 | 35067 ft | 433 kts | 218° |
| 2026-04-26 16:47 | 41.41055 | -6.91705 | 35056 ft | 432 kts | 218° |
| 2026-04-26 16:47 | 41.36257 | -6.96546 | 35052 ft | 432 kts | 218° |
| 2026-04-26 16:48 | 41.31465 | -7.01373 | 35056 ft | 432 kts | 218° |
| 2026-04-26 16:48 | 41.26697 | -7.06167 | 35053 ft | 432 kts | 218° |
| 2026-04-26 16:49 | 41.21895 | -7.10987 | 35061 ft | 432 kts | 218° |
| 2026-04-26 16:49 | 41.17094 | -7.15796 | 35075 ft | 432 kts | 218° |
| 2026-04-26 16:50 | 41.12284 | -7.20606 | 35076 ft | 432 kts | 218° |
| 2026-04-26 16:50 | 41.07469 | -7.25411 | 35069 ft | 433 kts | 218° |
| 2026-04-26 16:51 | 41.02681 | -7.30180 | 35078 ft | 433 kts | 218° |
| 2026-04-26 16:51 | 40.97861 | -7.34973 | 35081 ft | 433 kts | 218° |
| 2026-04-26 16:52 | 40.93823 | -7.38980 | 35077 ft | 433 kts | 218° |
| 2026-04-26 16:52 | 40.88217 | -7.44535 | 35079 ft | 433 kts | 218° |
| 2026-04-26 16:53 | 40.83390 | -7.49306 | 35087 ft | 433 kts | 218° |
| 2026-04-26 16:53 | 40.78557 | -7.54076 | 35084 ft | 433 kts | 218° |
| 2026-04-26 16:54 | 40.73729 | -7.58832 | 35080 ft | 433 kts | 218° |
| 2026-04-26 16:54 | 40.68930 | -7.63550 | 35082 ft | 433 kts | 217° |
| 2026-04-26 16:55 | 40.64090 | -7.68301 | 35066 ft | 433 kts | 217° |
| 2026-04-26 16:55 | 40.59262 | -7.73029 | 35080 ft | 432 kts | 217° |
| 2026-04-26 16:56 | 40.52048 | -7.80080 | 35077 ft | 432 kts | 217° |
| 2026-04-26 16:57 | 40.47222 | -7.84786 | 35072 ft | 431 kts | 217° |
| 2026-04-26 16:57 | 40.39987 | -7.91825 | 35072 ft | 431 kts | 217° |
| 2026-04-26 16:58 | 40.35979 | -7.95716 | 35075 ft | 431 kts | 217° |
| 2026-04-26 16:59 | 40.27929 | -8.03514 | 35066 ft | 431 kts | 217° |
| 2026-04-26 16:59 | 40.23058 | -8.08221 | 34078 ft | 435 kts | 217° |
| 2026-04-26 17:00 | 40.18211 | -8.12897 | 32816 ft | 434 kts | 217° |
| 2026-04-26 17:00 | 40.13348 | -8.17578 | 31569 ft | 434 kts | 218° |
| 2026-04-26 17:00 | 40.10914 | -8.19916 | 31120 ft | 430 kts | 217° |
| 2026-04-26 17:01 | 40.08513 | -8.22224 | 30657 ft | 426 kts | 217° |
| 2026-04-26 17:01 | 40.06131 | -8.24511 | 30214 ft | 423 kts | 218° |
| 2026-04-26 17:01 | 40.03768 | -8.26777 | 29696 ft | 420 kts | 217° |
| 2026-04-26 17:01 | 40.01402 | -8.28996 | 29207 ft | 416 kts | 213° |
| 2026-04-26 17:02 | 39.98749 | -8.30450 | 28848 ft | 413 kts | 195° |
| 2026-04-26 17:02 | 39.95934 | -8.31050 | 28520 ft | 409 kts | 188° |
| 2026-04-26 17:02 | 39.93106 | -8.31450 | 28193 ft | 419 kts | 186° |
| 2026-04-26 17:02 | 39.90161 | -8.31835 | 27846 ft | 428 kts | 187° |
| 2026-04-26 17:03 | 39.87192 | -8.32235 | 27477 ft | 428 kts | 187° |
| 2026-04-26 17:03 | 39.84239 | -8.32656 | 27122 ft | 425 kts | 187° |
| 2026-04-26 17:03 | 39.81308 | -8.33094 | 26775 ft | 421 kts | 187° |
| 2026-04-26 17:03 | 39.78410 | -8.33537 | 26436 ft | 416 kts | 188° |
| 2026-04-26 17:04 | 39.75553 | -8.33976 | 26100 ft | 410 kts | 187° |
| 2026-04-26 17:04 | 39.72741 | -8.34406 | 25769 ft | 403 kts | 187° |
| 2026-04-26 17:04 | 39.70062 | -8.35139 | 25425 ft | 396 kts | 204° |
| 2026-04-26 17:04 | 39.67732 | -8.36929 | 25143 ft | 384 kts | 220° |
| 2026-04-26 17:05 | 39.65941 | -8.39417 | 24856 ft | 372 kts | 233° |
| 2026-04-26 17:05 | 39.64409 | -8.42070 | 24555 ft | 363 kts | 234° |
| 2026-04-26 17:05 | 39.62918 | -8.44698 | 24270 ft | 360 kts | 233° |
| 2026-04-26 17:05 | 39.61420 | -8.47289 | 23980 ft | 358 kts | 233° |
| 2026-04-26 17:06 | 39.59915 | -8.49850 | 23709 ft | 356 kts | 233° |
| 2026-04-26 17:06 | 39.58362 | -8.52345 | 23365 ft | 355 kts | 225° |
| 2026-04-26 17:06 | 39.56370 | -8.54214 | 23073 ft | 352 kts | 211° |
| 2026-04-26 17:06 | 39.54256 | -8.55833 | 22778 ft | 354 kts | 210° |
| 2026-04-26 17:07 | 39.52124 | -8.57458 | 22481 ft | 357 kts | 211° |
| 2026-04-26 17:07 | 39.50014 | -8.59079 | 22187 ft | 357 kts | 211° |
| 2026-04-26 17:07 | 39.47889 | -8.60725 | 21891 ft | 355 kts | 211° |
| 2026-04-26 17:07 | 39.45782 | -8.62366 | 21609 ft | 353 kts | 211° |
| 2026-04-26 17:08 | 39.43683 | -8.64008 | 21326 ft | 350 kts | 211° |
| 2026-04-26 17:08 | 39.41609 | -8.65631 | 21086 ft | 347 kts | 211° |
| 2026-04-26 17:08 | 39.39547 | -8.67246 | 20835 ft | 345 kts | 211° |
| 2026-04-26 17:08 | 39.37496 | -8.68851 | 20590 ft | 345 kts | 211° |
| 2026-04-26 17:09 | 39.35446 | -8.70454 | 20342 ft | 344 kts | 211° |
| 2026-04-26 17:09 | 39.34089 | -8.71514 | 20177 ft | 343 kts | 211° |
| 2026-04-26 17:09 | 39.31364 | -8.73658 | 19835 ft | 343 kts | 213° |
| 2026-04-26 17:09 | 39.29471 | -8.75534 | 19603 ft | 342 kts | 220° |
| 2026-04-26 17:10 | 39.27696 | -8.77582 | 19371 ft | 342 kts | 222° |
| 2026-04-26 17:10 | 39.25949 | -8.79667 | 19146 ft | 341 kts | 222° |
| 2026-04-26 17:10 | 39.24223 | -8.81720 | 18916 ft | 341 kts | 222° |
| 2026-04-26 17:10 | 39.22470 | -8.83780 | 18684 ft | 339 kts | 221° |
| 2026-04-26 17:11 | 39.20718 | -8.85816 | 18450 ft | 338 kts | 221° |
| 2026-04-26 17:11 | 39.18970 | -8.87830 | 18205 ft | 337 kts | 221° |
| 2026-04-26 17:11 | 39.17218 | -8.89838 | 17938 ft | 336 kts | 221° |
| 2026-04-26 17:11 | 39.15475 | -8.91829 | 17675 ft | 334 kts | 221° |
| 2026-04-26 17:12 | 39.12001 | -8.95789 | 17166 ft | 332 kts | 221° |
| 2026-04-26 17:12 | 39.10277 | -8.97752 | 16905 ft | 330 kts | 221° |
| 2026-04-26 17:13 | 39.06840 | -9.01660 | 16401 ft | 328 kts | 220° |
| 2026-04-26 17:13 | 39.05132 | -9.03601 | 16149 ft | 327 kts | 221° |
| 2026-04-26 17:13 | 39.01772 | -9.07414 | 15637 ft | 320 kts | 220° |
| 2026-04-26 17:14 | 39.00092 | -9.09252 | 15379 ft | 313 kts | 213° |
| 2026-04-26 17:14 | 38.96250 | -9.11501 | 14880 ft | 296 kts | 201° |
| 2026-04-26 17:14 | 38.94349 | -9.12477 | 14632 ft | 291 kts | 200° |
| 2026-04-26 17:15 | 38.90610 | -9.14422 | 14165 ft | 289 kts | 200° |
| 2026-04-26 17:15 | 38.88748 | -9.15404 | 13937 ft | 288 kts | 201° |
| 2026-04-26 17:15 | 38.86921 | -9.16373 | 13690 ft | 288 kts | 201° |
| 2026-04-26 17:16 | 38.85077 | -9.17354 | 13427 ft | 287 kts | 200° |
| 2026-04-26 17:16 | 38.83231 | -9.18337 | 13165 ft | 286 kts | 201° |
| 2026-04-26 17:16 | 38.81399 | -9.19315 | 12971 ft | 282 kts | 201° |
| 2026-04-26 17:16 | 38.79596 | -9.20278 | 12719 ft | 280 kts | 201° |
| 2026-04-26 17:17 | 38.77802 | -9.21234 | 12448 ft | 278 kts | 200° |
| 2026-04-26 17:17 | 38.76016 | -9.22184 | 12174 ft | 277 kts | 199° |
| 2026-04-26 17:17 | 38.74232 | -9.23133 | 11903 ft | 277 kts | 200° |
| 2026-04-26 17:17 | 38.72493 | -9.24204 | 11605 ft | 280 kts | 214° |
| 2026-04-26 17:18 | 38.71578 | -9.25371 | 11413 ft | 280 kts | 231° |
| 2026-04-26 17:18 | 38.70037 | -9.28024 | 11026 ft | 281 kts | 232° |
| 2026-04-26 17:18 | 38.68864 | -9.30034 | 10673 ft | 285 kts | 231° |
| 2026-04-26 17:18 | 38.68059 | -9.31410 | 10451 ft | 286 kts | 232° |
| 2026-04-26 17:19 | 38.66248 | -9.35938 | 9839 ft | 285 kts | 246° |
| 2026-04-26 17:19 | 38.65467 | -9.38260 | 9438 ft | 284 kts | 245° |
| 2026-04-26 17:19 | 38.64677 | -9.40575 | 9026 ft | 284 kts | 245° |
| 2026-04-26 17:20 | 38.63884 | -9.42849 | 8648 ft | 282 kts | 245° |
| 2026-04-26 17:20 | 38.63340 | -9.44387 | 8412 ft | 280 kts | 244° |
| 2026-04-26 17:20 | 38.62272 | -9.47374 | 7897 ft | 277 kts | 244° |
| 2026-04-26 17:20 | 38.61468 | -9.49612 | 7521 ft | 276 kts | 244° |
| 2026-04-26 17:21 | 38.60656 | -9.51853 | 7030 ft | 279 kts | 242° |
| 2026-04-26 17:21 | 38.59480 | -9.53728 | 6752 ft | 267 kts | 210° |
| 2026-04-26 17:21 | 38.57818 | -9.54578 | 6456 ft | 251 kts | 180° |
| 2026-04-26 17:21 | 38.56133 | -9.54342 | 6183 ft | 243 kts | 154° |
| 2026-04-26 17:22 | 38.54750 | -9.53198 | 5955 ft | 238 kts | 128° |
| 2026-04-26 17:22 | 38.53898 | -9.51450 | 5704 ft | 236 kts | 107° |
| 2026-04-26 17:22 | 38.53618 | -9.49413 | 5493 ft | 234 kts | 85° |
| 2026-04-26 17:22 | 38.53895 | -9.47342 | 5263 ft | 240 kts | 76° |
| 2026-04-26 17:23 | 38.54275 | -9.45249 | 5021 ft | 241 kts | 76° |
| 2026-04-26 17:23 | 38.54657 | -9.43167 | 4778 ft | 239 kts | 76° |
| 2026-04-26 17:23 | 38.55032 | -9.41108 | 4516 ft | 237 kts | 75° |
| 2026-04-26 17:23 | 38.55401 | -9.39057 | 4255 ft | 236 kts | 76° |
| 2026-04-26 17:24 | 38.55764 | -9.37028 | 4070 ft | 231 kts | 75° |
| 2026-04-26 17:24 | 38.56114 | -9.35055 | 4007 ft | 222 kts | 75° |
| 2026-04-26 17:24 | 38.56449 | -9.33161 | 3999 ft | 217 kts | 75° |
| 2026-04-26 17:24 | 38.56791 | -9.31272 | 3998 ft | 218 kts | 72° |
| 2026-04-26 17:25 | 38.57310 | -9.29478 | 3999 ft | 214 kts | 65° |
| 2026-04-26 17:25 | 38.57878 | -9.27765 | 3996 ft | 211 kts | 65° |
| 2026-04-26 17:25 | 38.58435 | -9.26075 | 4015 ft | 201 kts | 65° |
| 2026-04-26 17:25 | 38.58972 | -9.24492 | 3967 ft | 186 kts | 58° |
| 2026-04-26 17:26 | 38.59903 | -9.23482 | 3827 ft | 173 kts | 21° |
| 2026-04-26 17:26 | 38.61037 | -9.23000 | 3649 ft | 177 kts | 22° |
| 2026-04-26 17:26 | 38.62139 | -9.22246 | 3412 ft | 179 kts | 29° |
| 2026-04-26 17:26 | 38.63250 | -9.21527 | 3101 ft | 178 kts | 23° |
| 2026-04-26 17:27 | 38.64375 | -9.20934 | 2895 ft | 171 kts | 23° |
| 2026-04-26 17:27 | 38.65467 | -9.20357 | 2668 ft | 168 kts | 21° |
| 2026-04-26 17:27 | 38.66526 | -9.19805 | 2448 ft | 160 kts | 22° |
| 2026-04-26 17:27 | 38.67509 | -9.19285 | 2282 ft | 149 kts | 21° |
| 2026-04-26 17:28 | 38.68420 | -9.18805 | 2134 ft | 134 kts | 20° |
| 2026-04-26 17:28 | 38.69274 | -9.18342 | 1916 ft | 133 kts | 21° |
| 2026-04-26 17:28 | 38.70138 | -9.17878 | 1719 ft | 138 kts | 21° |
| 2026-04-26 17:28 | 38.71065 | -9.17383 | 1555 ft | 151 kts | 21° |
| 2026-04-26 17:29 | 38.72047 | -9.16846 | 1398 ft | 156 kts | 21° |
| 2026-04-26 17:29 | 38.72721 | -9.16484 | 1283 ft | 155 kts | 20° |
| 2026-04-26 17:29 | 38.74030 | -9.15784 | 996 ft | 150 kts | 19° |
| 2026-04-26 17:29 | 38.74976 | -9.15274 | 748 ft | 152 kts | 20° |
| 2026-04-26 17:30 | 38.76017 | -9.14707 | 581 ft | 168 kts | 17° |
| 2026-04-26 17:30 | 38.77095 | -9.14150 | 368 ft | 164 kts | 16° |
| 2026-04-26 17:30 | 38.78036 | -9.13647 | 365 ft | 119 kts | 23° |
| 2026-04-26 17:30 | 38.78598 | -9.13346 | 363 ft | 55 kts | 22° |
| 2026-04-26 17:31 | 38.78765 | -9.13259 | 357 ft | 11 kts | 21° |
| 2026-04-26 17:31 | 38.78897 | -9.13189 | 359 ft | 29 kts | 22° |
| 2026-04-26 17:31 | 38.79128 | -9.13065 | 353 ft | 43 kts | 22° |
| 2026-04-26 17:31 | 38.79422 | -9.12908 | 353 ft | 45 kts | 23° |
| 2026-04-26 17:32 | 38.79619 | -9.12799 | 351 ft | 22 kts | 22° |
| 2026-04-26 17:32 | 38.79738 | -9.12803 | 356 ft | 14 kts | 307° |
| 2026-04-26 17:32 | 38.79772 | -9.12907 | 356 ft | 13 kts | 286° |
| 2026-04-26 17:32 | 38.79728 | -9.12988 | 359 ft | 12 kts | 203° |
| 2026-04-26 17:33 | 38.79651 | -9.13029 | 363 ft | 12 kts | 202° |
| 2026-04-26 17:33 | 38.79575 | -9.13069 | 362 ft | 12 kts | 203° |
| 2026-04-26 17:33 | 38.79495 | -9.13113 | 356 ft | 14 kts | 204° |
| 2026-04-26 17:34 | 38.79281 | -9.13228 | 350 ft | 19 kts | 203° |
| 2026-04-26 17:34 | 38.79162 | -9.13290 | 346 ft | 18 kts | 204° |
| 2026-04-26 17:34 | 38.79048 | -9.13351 | 345 ft | 17 kts | 203° |
| 2026-04-26 17:34 | 38.78939 | -9.13410 | 354 ft | 16 kts | 202° |
| 2026-04-26 17:35 | 38.78841 | -9.13461 | 358 ft | 15 kts | 202° |
| 2026-04-26 17:35 | 38.78746 | -9.13513 | 364 ft | 15 kts | 204° |
| 2026-04-26 17:35 | 38.78645 | -9.13563 | 370 ft | 15 kts | 195° |
| 2026-04-26 17:35 | 38.78540 | -9.13556 | 369 ft | 16 kts | 167° |
| 2026-04-26 17:36 | 38.78426 | -9.13524 | 365 ft | 18 kts | 168° |
| 2026-04-26 17:36 | 38.78297 | -9.13490 | 364 ft | 19 kts | 168° |
| 2026-04-26 17:36 | 38.78167 | -9.13455 | 366 ft | 20 kts | 167° |
| 2026-04-26 17:36 | 38.78028 | -9.13417 | 358 ft | 21 kts | 168° |
| 2026-04-26 17:37 | 38.77874 | -9.13376 | 348 ft | 24 kts | 168° |
| 2026-04-26 17:37 | 38.77720 | -9.13335 | 339 ft | 23 kts | 168° |
| 2026-04-26 17:37 | 38.77577 | -9.13316 | 337 ft | 18 kts | 174° |
| 2026-04-26 17:38 | 38.77374 | -9.13266 | 332 ft | 8 kts | 171° |
| 2026-04-26 17:38 | 38.77359 | -9.13219 | 335 ft | 7 kts | 77° |
| 2026-04-26 17:38 | 38.77368 | -9.13168 | 334 ft | 4 kts | 78° |
| 2026-04-26 17:38 | 38.77372 | -9.13140 | 336 ft | 0 kts | 78° |
| 2026-04-26 17:40 | 38.77372 | -9.13149 | 336 ft | 0 kts | 78° |